EW2569 Weather Reports


time (UTC)temp
C
wind
direction
speed
KPH
gust
KPH
rain 1hr
cm
rain 24hr
cm
rain mn
cm
humidity
%
barometer
mb
20200217001017 15 202 4.8 22.5 0.00 0.00 0.00 48 1014.8
20200217000017 15 202 6.4 24.1 0.00 0.00 0.00 48 1014.9
20200216235016 15 202 6.4 24.1 0.00 0.00 0.00 49 1014.7
20200216234016 15 225 4.8 17.7 0.00 0.00 0.00 49 1014.5
20200216233017 15 180 3.2 17.7 0.00 0.00 0.00 49 1014.5
20200216232016 15 202 3.2 17.7 0.00 0.00 0.00 49 1014.3
20200216231016 15 225 3.2 16.1 0.00 0.00 0.00 49 1014.2
20200216230016 15 202 4.8 22.5 0.00 0.00 0.00 48 1014.1
20200216225016 15 202 6.4 30.6 0.00 0.00 0.00 48 1014.1
20200216224016 15 247 6.4 20.9 0.00 0.00 0.00 49 1014.1
20200216223016 15 202 4.8 25.7 0.00 0.00 0.00 50 1014.0
20200216222016 14 225 1.6 16.1 0.00 0.00 0.00 50 1014.1
20200216221016 14 225 0.0 9.7 0.00 0.00 0.00 50 1013.9
20200216220016 14 225 0.0 11.3 0.00 0.00 0.00 50 1014.0
20200216215016 14 225 0.0 8.0 0.00 0.00 0.00 50 1014.0
20200216214016 14 225 0.0 9.7 0.00 0.00 0.00 50 1014.0
20200216213016 14 202 1.6 12.9 0.00 0.00 0.00 50 1014.0
20200216212016 14 247 1.6 11.3 0.00 0.00 0.00 50 1013.9
20200216211018 14 247 1.6 14.5 0.00 0.00 0.00 50 1013.9
20200216210018 14 225 0.0 8.0 0.00 0.00 0.00 49 1014.0
20200216205018 15 0.0 8.0 0.00 0.00 0.00 49 1013.8
20200216204017 15 225 0.0 8.0 0.00 0.00 0.00 48 1013.6
20200216203018 15 225 0.0 9.7 0.00 0.00 0.00 46 1013.5
20200216202018 15 247 3.2 12.9 0.00 0.00 0.00 46 1013.4
20200216201018 15 225 4.8 20.9 0.00 0.00 0.00 45 1013.2
20200216200017 15 225 3.2 19.3 0.00 0.00 0.00 46 1013.1
20200216195018 15 225 3.2 22.5 0.00 0.00 0.00 46 1012.9
20200216194018 15 225 1.6 17.7 0.00 0.00 0.00 47 1013.0
20200216193017 15 202 1.6 12.9 0.00 0.00 0.00 47 1013.0
20200216192017 16 225 4.8 20.9 0.00 0.00 0.00 47 1012.9
20200216191018 15 225 3.2 19.3 0.00 0.00 0.00 47 1013.0
20200216190016 15 202 3.2 14.5 0.00 0.00 0.00 48 1012.9
20200216185017 15 225 4.8 20.9 0.00 0.00 0.00 48 1012.9
20200216184017 15 225 4.8 22.5 0.00 0.00 0.00 48 1013.0
20200216183018 15 225 3.2 20.9 0.00 0.00 0.00 48 1012.8
20200216182017 15 202 3.2 12.9 0.00 0.00 0.00 48 1012.8
20200216181017 15 202 1.6 11.3 0.00 0.00 0.00 49 1012.7
20200216180017 15 225 0.0 16.1 0.00 0.00 0.00 49 1012.6
20200216175018 15 0.0 8.0 0.00 0.00 0.00 49 1012.3
20200216174018 16 225 0.0 11.3 0.00 0.00 0.00 48 1012.4
20200216173017 16 0.0 0.0 0.00 0.00 0.00 48 1012.4
20200216172017 16 0.0 1.6 0.00 0.00 0.00 47 1012.4
20200216171019 16 225 0.0 8.0 0.00 0.00 0.00 46 1012.5
20200216170018 17 225 0.0 8.0 0.00 0.00 0.00 45 1012.5
20200216165017 17 225 1.6 12.9 0.00 0.00 0.00 44 1012.4
20200216164017 17 225 1.6 14.5 0.00 0.00 0.00 43 1012.4
20200216163017 17 225 1.6 16.1 0.00 0.00 0.00 43 1012.5
20200216162017 17 225 1.6 11.3 0.00 0.00 0.00 42 1012.5
20200216161017 17 0.0 4.8 0.00 0.00 0.00 44 1012.6
20200216160017 18 202 0.0 8.0 0.00 0.00 0.00 42 1012.4
20200216155017 18 202 1.6 12.9 0.00 0.00 0.00 42 1012.5
20200216154017 18 202 0.0 8.0 0.00 0.00 0.00 42 1012.6
20200216153017 18 202 1.6 9.7 0.00 0.00 0.00 42 1012.7
20200216152017 18 202 0.0 9.7 0.00 0.00 0.00 42 1013.0
20200216151017 17 202 0.0 9.7 0.00 0.00 0.00 42 1013.1
20200216150017 17 202 0.0 4.8 0.00 0.00 0.00 43 1013.1
20200216145017 17 202 0.0 8.0 0.00 0.00 0.00 43 1013.0
20200216144017 17 202 0.0 8.0 0.00 0.00 0.00 43 1013.1
20200216143017 17 202 0.0 8.0 0.00 0.00 0.00 42 1013.1
20200216142017 17 202 1.6 9.7 0.00 0.00 0.00 41 1013.3
20200216141017 17 202 1.6 12.9 0.00 0.00 0.00 41 1013.3
20200216140017 17 202 3.2 11.3 0.00 0.00 0.00 42 1013.4
20200216135017 17 202 3.2 17.7 0.00 0.00 0.00 41 1013.5
20200216134017 16 202 3.2 16.1 0.00 0.00 0.00 42 1013.7
20200216133017 16 202 3.2 14.5 0.00 0.00 0.00 45 1013.8
20200216132017 16 247 3.2 17.7 0.00 0.00 0.00 45 1013.9
20200216131017 16 247 3.2 19.3 0.00 0.00 0.00 46 1014.0
20200216130017 16 247 3.2 12.9 0.00 0.00 0.00 47 1013.7
20200216125017 16 247 6.4 17.7 0.00 0.00 0.00 45 1013.6
20200216124017 16 247 1.6 12.9 0.00 0.00 0.00 43 1013.7
20200216123017 16 247 1.6 11.3 0.00 0.00 0.00 43 1013.7
20200216122017 16 247 1.6 14.5 0.00 0.00 0.00 43 1013.9
20200216121017 16 247 1.6 12.9 0.00 0.00 0.00 43 1014.1
20200216120017 16 247 3.2 16.1 0.00 0.00 0.00 44 1014.1
20200216115017 15 270 4.8 16.1 0.00 0.00 0.00 45 1014.3
20200216114018 15 270 6.4 16.1 0.00 0.00 0.00 44 1014.4
20200216113017 15 270 4.8 12.9 0.00 0.00 0.00 45 1014.6
20200216112017 14 270 4.8 12.9 0.00 0.00 0.00 45 1014.7
20200216111017 14 202 1.6 9.7 0.00 0.00 0.00 46 1014.7
20200216110017 14 202 0.0 9.7 0.00 0.00 0.00 47 1014.9
20200216105017 13 202 3.2 19.3 0.00 0.00 0.00 46 1015.1
20200216104017 13 225 1.6 9.7 0.00 0.00 0.00 48 1015.5
20200216103017 13 225 0.0 9.7 0.00 0.00 0.00 48 1015.9
20200216102017 13 225 0.0 4.8 0.00 0.00 0.00 49 1016.2
20200216101017 13 225 0.0 4.8 0.00 0.00 0.00 47 1016.5
20200216100017 13 225 1.6 8.0 0.00 0.00 0.00 47 1016.4
20200216095017 13 225 1.6 11.3 0.00 0.00 0.00 46 1016.6
20200216094017 13 225 0.0 9.7 0.00 0.00 0.00 45 1016.6
20200216093017 13 225 1.6 11.3 0.00 0.00 0.00 45 1016.5
20200216091018 13 225 1.6 9.7 0.00 0.00 0.00 44 1016.4
20200216090017 13 225 1.6 8.0 0.00 0.00 0.00 43 1016.5
20200216085017 13 0.0 1.6 0.00 0.00 0.00 45 1016.6
20200216084017 13 0.0 4.8 0.00 0.00 0.00 46 1016.6
20200216083016 12 225 0.0 9.7 0.00 0.00 0.00 47 1016.5
20200216082017 12 225 0.0 8.0 0.00 0.00 0.00 47 1016.6
20200216081016 11 225 1.6 12.9 0.00 0.00 0.00 49 1016.3
20200216080016 11 225 0.0 6.4 0.00 0.00 0.00 51 1016.5
20200216075017 11 225 0.0 6.4 0.00 0.00 0.00 52 1016.5
20200216074016 10 225 0.0 4.8 0.00 0.00 0.00 52 1016.5
20200216073016 10 225 0.0 6.4 0.00 0.00 0.00 51 1016.6
20200216072017 10 225 0.0 6.4 0.00 0.00 0.00 51 1016.9
20200216071016 10 0.0 1.6 0.00 0.00 0.00 51 1017.0
20200216070016 10 225 0.0 3.2 0.00 0.00 0.00 51 1017.0
20200216065017 11 225 0.0 3.2 0.00 0.00 0.00 49 1017.0
20200216064016 11 0.0 0.0 0.00 0.00 0.00 48 1016.9
20200216063016 11 225 0.0 6.4 0.00 0.00 0.00 46 1016.9
20200216062016 11 225 1.6 8.0 0.00 0.00 0.00 45 1017.0
20200216061017 12 0.0 3.2 0.00 0.00 0.00 45 1016.9
20200216060016 12 225 0.0 8.0 0.00 0.00 0.00 44 1016.9
20200216055016 12 225 0.0 6.4 0.00 0.00 0.00 44 1017.2
20200216054016 12 225 1.6 8.0 0.00 0.00 0.00 43 1017.3
20200216053016 12 225 1.6 8.0 0.00 0.00 0.00 44 1017.2
20200216052016 12 225 3.2 16.1 0.00 0.00 0.00 44 1017.1
20200216051016 12 225 3.2 19.3 0.00 0.00 0.00 45 1017.0
20200216050016 12 225 1.6 14.5 0.00 0.00 0.00 45 1017.0
20200216045016 12 202 3.2 19.3 0.00 0.00 0.00 44 1016.9
20200216044016 12 225 4.8 17.7 0.00 0.00 0.00 45 1016.9
20200216043017 12 202 3.2 14.5 0.00 0.00 0.00 46 1017.1
20200216042017 12 225 1.6 14.5 0.00 0.00 0.00 46 1017.1
20200216041017 12 225 1.6 16.1 0.00 0.00 0.00 46 1017.5
20200216040016 12 225 3.2 12.9 0.00 0.00 0.00 44 1017.7
20200216035016 12 202 1.6 9.7 0.00 0.00 0.00 44 1017.8
20200216034016 12 202 1.6 9.7 0.00 0.00 0.00 45 1017.5
20200216033016 11 202 0.0 9.7 0.00 0.00 0.00 46 1017.4
20200216032016 11 202 1.6 9.7 0.00 0.00 0.00 47 1017.5
20200216031016 11 202 3.2 11.3 0.00 0.00 0.00 50 1017.4
20200216030016 11 202 0.0 6.4 0.00 0.00 0.00 51 1017.5
20200216025016 11 225 0.0 6.4 0.00 0.00 0.00 50 1017.7
20200216024016 11 0.0 3.2 0.00 0.00 0.00 49 1018.2
20200216023017 11 225 0.0 11.3 0.00 0.00 0.00 49 1018.2
20200216022016 11 202 1.6 8.0 0.00 0.00 0.00 48 1018.3
20200216021016 12 202 0.0 8.0 0.00 0.00 0.00 48 1018.6
20200216020016 12 0.0 8.0 0.00 0.00 0.00 48 1018.5
20200216015016 12 202 0.0 3.2 0.00 0.00 0.00 47 1018.6
20200216014016 12 202 0.0 8.0 0.00 0.00 0.00 46 1018.8
20200216013016 12 202 1.6 9.7 0.00 0.00 0.00 45 1018.9
20200216012016 12 180 1.6 12.9 0.00 0.00 0.00 45 1018.8
20200216011016 12 180 1.6 12.9 0.00 0.00 0.00 45 1018.6
20200216010016 12 202 4.8 25.7 0.00 0.00 0.00 45 1018.4
20200216005016 12 180 1.6 11.3 0.00 0.00 0.00 47 1018.9
20200216004016 12 180 1.6 12.9 0.00 0.00 0.00 48 1018.8
20200216003016 11 157 3.2 14.5 0.00 0.00 0.00 50 1018.9
20200216002016 10 157 1.6 9.7 0.00 0.00 0.00 55 1019.3